Time;durP1;ratioP1;P1;durP2;ratioP2;P2;SDS_P1;SDS_P2;PMS_P1;PMS_P2;Temp;Humidity;BMP_temperature;BMP_pressure;BME280_temperature;BME280_humidity;BME280_pressure;Samples;Min_cycle;Max_cycle;Signal;HPM_P1;HPM_P2
2023/11/11 00:07:36;;;;;;;0.85;0.10;;;2.20;99.90;;;;;;25595464;23;20492;-59
2023/11/11 00:17:38;;;;;;;0.10;0.10;;;2.20;99.90;;;;;;25595330;23;20499;-59
2023/11/11 00:27:41;;;;;;;0.10;0.00;;;1.90;99.90;;;;;;25595173;23;20059;-60
2023/11/11 00:37:45;;;;;;;0.17;0.00;;;1.70;99.90;;;;;;25593735;23;20016;-59
2023/11/11 00:47:46;;;;;;;0.45;0.03;;;1.80;99.90;;;;;;25594150;23;20013;-60
2023/11/11 00:57:48;;;;;;;0.50;0.10;;;1.80;99.90;;;;;;25594457;23;20017;-60
2023/11/11 01:07:50;;;;;;;0.17;0.05;;;1.90;99.90;;;;;;25593303;23;20507;-59
2023/11/11 01:17:53;;;;;;;0.30;0.00;;;1.30;99.90;;;;;;25592684;23;20009;-59
2023/11/11 01:27:55;;;;;;;0.30;0.00;;;1.20;99.90;;;;;;25595260;23;20340;-59
2023/11/11 01:37:57;;;;;;;0.10;0.00;;;1.30;99.90;;;;;;25593144;23;20005;-60
2023/11/11 01:47:58;;;;;;;0.20;0.03;;;0.90;99.90;;;;;;25592631;23;20027;-60
2023/11/11 01:58:02;;;;;;;0.52;0.10;;;0.70;99.90;;;;;;25599450;23;20507;-60
2023/11/11 02:08:07;;;;;;;0.03;0.00;;;0.60;99.90;;;;;;25598747;23;20001;-60
2023/11/11 02:18:10;;;;;;;1.92;0.08;;;1.00;99.90;;;;;;25599965;23;20028;-59
2023/11/11 02:28:12;;;;;;;0.47;0.10;;;1.70;99.90;;;;;;25599307;23;20056;-60
2023/11/11 02:38:14;;;;;;;1.38;0.10;;;1.90;99.90;;;;;;25599416;23;20012;-60
2023/11/11 02:48:16;;;;;;;0.45;0.00;;;1.50;99.90;;;;;;25598544;23;20013;-60
2023/11/11 02:58:18;;;;;;;0.10;0.00;;;1.10;99.90;;;;;;25598581;23;20067;-60
2023/11/11 03:08:20;;;;;;;0.22;0.00;;;0.80;99.90;;;;;;25598081;23;20546;-60
2023/11/11 03:18:21;;;;;;;0.20;0.00;;;0.80;99.90;;;;;;25598243;23;20012;-60
2023/11/11 03:28:23;;;;;;;0.00;0.00;;;1.90;99.80;;;;;;25597612;23;20352;-60
2023/11/11 03:38:25;;;;;;;0.00;0.00;;;1.90;99.90;;;;;;25597638;23;20356;-60
2023/11/11 03:48:28;;;;;;;0.00;0.00;;;2.00;99.90;;;;;;25596973;23;20013;-60
2023/11/11 03:58:30;;;;;;;0.00;0.00;;;1.40;99.90;;;;;;25596552;23;20005;-60
2023/11/11 04:08:34;;;;;;;0.00;0.00;;;1.00;99.90;;;;;;25596285;23;20001;-48
2023/11/11 04:18:37;;;;;;;0.63;0.00;;;1.50;99.90;;;;;;25594822;23;20060;-60
2023/11/11 04:28:43;;;;;;;0.28;0.00;;;1.30;99.90;;;;;;25594957;23;20009;-50
2023/11/11 04:38:45;;;;;;;0.25;0.20;;;1.00;99.90;;;;;;25634256;23;20072;-60
2023/11/11 04:48:47;;;;;;;0.15;0.00;;;1.30;99.90;;;;;;25592608;23;20344;-60
2023/11/11 04:58:49;;;;;;;0.00;0.00;;;1.00;99.90;;;;;;25594280;23;20009;-60
2023/11/11 05:08:51;;;;;;;0.52;0.00;;;2.30;98.20;;;;;;25593901;23;20013;-60
2023/11/11 05:18:53;;;;;;;0.00;0.00;;;2.00;99.90;;;;;;25593320;23;20001;-60
2023/11/11 05:28:55;;;;;;;0.20;0.00;;;1.10;99.90;;;;;;25593164;23;20332;-59
2023/11/11 05:38:57;;;;;;;0.10;0.00;;;0.70;99.90;;;;;;25593576;23;20001;-60
2023/11/11 05:48:59;;;;;;;0.00;0.00;;;0.30;99.90;;;;;;25592977;23;20071;-60
2023/11/11 05:59:01;;;;;;;0.00;0.00;;;0.10;99.90;;;;;;25593251;23;20009;-60
2023/11/11 06:09:03;;;;;;;0.10;0.00;;;0.00;99.90;;;;;;25592926;23;20009;-60
2023/11/11 06:19:08;;;;;;;0.00;0.00;;;-0.10;99.90;;;;;;25592595;23;20008;-60
2023/11/11 06:29:10;;;;;;;1.83;0.10;;;-0.10;99.90;;;;;;25591996;23;20005;-60
2023/11/11 06:39:13;;;;;;;0.45;0.00;;;0.00;99.90;;;;;;25594871;23;20302;-59
2023/11/11 06:49:16;;;;;;;0.10;0.00;;;0.10;99.90;;;;;;25596572;23;20013;-60
2023/11/11 06:59:18;;;;;;;0.10;0.00;;;0.20;99.90;;;;;;25571972;23;20031;-59
2023/11/11 07:09:20;;;;;;;0.22;0.00;;;0.80;99.90;;;;;;25598471;23;20012;-60
2023/11/11 07:19:22;;;;;;;0.20;0.00;;;1.20;99.90;;;;;;25598095;23;20008;-58
2023/11/11 07:29:25;;;;;;;0.20;0.10;;;1.70;99.90;;;;;;25597611;23;20001;-58
2023/11/11 07:39:27;;;;;;;0.28;0.10;;;2.40;99.90;;;;;;25597424;23;20302;-54
2023/11/11 07:49:30;;;;;;;0.10;0.00;;;3.20;99.90;;;;;;25596340;23;20562;-55
2023/11/11 07:59:35;;;;;;;0.00;0.00;;;3.90;99.90;;;;;;25596655;23;20001;-57
2023/11/11 08:09:38;;;;;;;0.00;0.00;;;4.60;99.90;;;;;;25595919;23;20372;-49
2023/11/11 08:19:40;;;;;;;0.17;0.00;;;5.30;99.20;;;;;;25595953;23;20044;-52
2023/11/11 08:29:41;;;;;;;0.03;0.00;;;6.40;99.90;;;;;;25595257;23;20008;-58
2023/11/11 08:39:44;;;;;;;0.15;0.00;;;7.20;97.10;;;;;;25594879;23;20413;-58
2023/11/11 08:49:46;;;;;;;0.10;0.10;;;7.80;98.10;;;;;;25594621;23;20017;-52
2023/11/11 08:59:48;;;;;;;0.17;0.00;;;8.40;98.90;;;;;;25594028;23;20008;-58
2023/11/11 09:09:50;;;;;;;0.20;0.00;;;9.10;98.20;;;;;;25594031;23;20008;-58
2023/11/11 09:19:52;;;;;;;0.15;0.00;;;9.70;94.10;;;;;;25593794;23;20012;-57
2023/11/11 09:29:54;;;;;;;0.00;0.00;;;9.90;90.50;;;;;;25593188;23;20005;-58
2023/11/11 09:39:55;;;;;;;0.00;0.00;;;10.50;93.10;;;;;;25593092;23;20436;-57
2023/11/11 09:50:00;;;;;;;0.20;0.10;;;11.00;89.80;;;;;;25592375;23;20005;-58
2023/11/11 10:00:02;;;;;;;0.20;0.00;;;11.30;92.50;;;;;;25589754;23;20028;-58
2023/11/11 10:10:14;;;;;;;0.20;0.00;;;11.00;90.70;;;;;;25633112;23;20005;-58
2023/11/11 10:20:16;;;;;;;0.00;0.00;;;11.10;85.30;;;;;;25599593;23;20001;-54
2023/11/11 10:30:25;;;;;;;0.15;0.03;;;10.70;80.10;;;;;;25599433;23;20281;-48
2023/11/11 10:40:27;;;;;;;0.03;0.00;;;10.90;78.30;;;;;;25637817;23;20013;-52
2023/11/11 10:50:30;;;;;;;0.20;0.00;;;11.20;82.10;;;;;;25639998;23;20012;-53
2023/11/11 11:00:35;;;;;;;0.10;0.00;;;11.40;71.30;;;;;;25598428;23;20503;-50
2023/11/11 11:10:51;;;;;;;0.03;0.00;;;11.50;77.30;;;;;;25598045;23;20028;-50
2023/11/11 11:20:54;;;;;;;0.30;0.22;;;11.60;80.30;;;;;;25638679;23;20001;-53
2023/11/11 11:30:58;;;;;;;0.52;0.30;;;12.10;92.30;;;;;;25596834;23;20001;-51
2023/11/11 11:41:21;;;;;;;0.80;0.40;;;12.10;92.20;;;;;;25596681;23;20013;-52
2023/11/11 11:51:24;;;;;;;0.45;0.20;;;11.80;92.40;;;;;;25596262;23;20008;-54
2023/11/11 12:01:27;;;;;;;0.70;0.40;;;11.80;93.40;;;;;;25595976;23;20325;-51
2023/11/11 12:11:31;;;;;;;1.90;0.47;;;11.50;94.10;;;;;;25595532;23;20384;-59
2023/11/11 12:21:33;;;;;;;0.60;0.40;;;11.40;95.30;;;;;;25595399;23;20005;-52
2023/11/11 12:31:50;;;;;;;0.77;0.60;;;11.30;94.40;;;;;;25595329;23;20009;-52
2023/11/11 12:41:53;;;;;;;0.80;0.70;;;11.40;95.10;;;;;;25625191;23;20314;-52
2023/11/11 12:51:55;;;;;;;0.88;0.52;;;11.40;97.00;;;;;;25594096;23;20514;-51
2023/11/11 13:02:04;;;;;;;1.20;0.20;;;11.00;94.70;;;;;;25593923;23;20001;-59
2023/11/11 13:12:06;;;;;;;0.28;0.20;;;10.10;91.20;;;;;;25593981;23;20005;-50
2023/11/11 13:22:09;;;;;;;0.73;0.30;;;9.70;91.50;;;;;;25593429;23;20001;-52
2023/11/11 13:32:11;;;;;;;0.30;0.10;;;8.90;93.50;;;;;;25592721;23;20028;-49
2023/11/11 13:42:15;;;;;;;0.45;0.05;;;8.50;85.70;;;;;;25592503;23;20017;-48
2023/11/11 13:52:18;;;;;;;0.00;0.00;;;8.40;82.60;;;;;;25596370;23;20424;-59
2023/11/11 14:02:20;;;;;;;0.00;0.00;;;8.00;83.80;;;;;;25601074;23;20009;-48
2023/11/11 14:12:22;;;;;;;0.10;0.00;;;7.90;76.80;;;;;;25600746;23;20444;-59
2023/11/11 14:22:29;;;;;;;0.10;0.00;;;7.60;80.30;;;;;;25599678;23;20012;-59
2023/11/11 14:32:31;;;;;;;0.73;0.00;;;7.40;78.40;;;;;;25640024;23;20027;-58
2023/11/11 14:42:33;;;;;;;0.10;0.00;;;7.00;81.60;;;;;;25599046;23;20036;-54
2023/11/11 14:52:36;;;;;;;0.10;0.00;;;6.70;85.20;;;;;;25598661;23;20009;-59
2023/11/11 15:02:40;;;;;;;0.13;0.00;;;5.90;87.90;;;;;;25595764;23;20013;-51
2023/11/11 15:12:52;;;;;;;0.30;0.00;;;5.00;89.90;;;;;;25522229;23;20032;-52
2023/11/11 15:23:08;;;;;;;0.13;0.10;;;4.40;90.20;;;;;;25463214;23;20017;-59
2023/11/11 15:33:10;;;;;;;0.00;0.00;;;3.80;93.40;;;;;;25473184;23;20021;-59
2023/11/11 15:43:12;;;;;;;0.30;0.05;;;3.20;93.70;;;;;;25462503;23;20017;-59
2023/11/11 15:53:14;;;;;;;1.25;0.40;;;2.70;95.60;;;;;;25485057;23;20032;-47
2023/11/11 16:03:22;;;;;;;0.10;0.00;;;2.40;94.70;;;;;;25570474;23;20059;-59
2023/11/11 16:13:23;;;;;;;0.20;0.00;;;2.10;96.10;;;;;;25595554;23;20103;-59
2023/11/11 16:23:25;;;;;;;0.08;0.00;;;1.80;96.20;;;;;;25595877;23;20012;-59
2023/11/11 16:33:27;;;;;;;0.10;0.00;;;1.70;95.40;;;;;;25595108;23;20011;-59
2023/11/11 16:43:29;;;;;;;0.63;0.60;;;1.60;96.70;;;;;;25594489;23;20013;-59
2023/11/11 16:53:32;;;;;;;0.30;0.10;;;1.80;97.10;;;;;;25594473;23;20005;-59
2023/11/11 17:03:37;;;;;;;1.08;0.38;;;1.70;97.00;;;;;;25594224;23;20282;-49
2023/11/11 17:13:39;;;;;;;0.17;0.10;;;1.70;96.00;;;;;;25595248;23;20380;-59
2023/11/11 17:23:43;;;;;;;0.20;0.10;;;1.70;97.10;;;;;;25594681;23;20025;-59
2023/11/11 17:33:47;;;;;;;0.17;0.10;;;1.40;97.50;;;;;;25566370;23;20064;-58
2023/11/11 17:43:49;;;;;;;0.10;0.00;;;1.40;97.40;;;;;;25592367;23;20067;-52
2023/11/11 17:53:51;;;;;;;0.08;0.00;;;1.40;97.20;;;;;;25592987;23;20009;-57
2023/11/11 18:03:53;;;;;;;0.20;0.10;;;1.50;97.20;;;;;;25593013;23;20009;-50
2023/11/11 18:13:55;;;;;;;0.10;0.00;;;1.30;98.10;;;;;;25592904;23;20016;-59
2023/11/11 18:23:57;;;;;;;0.10;0.00;;;1.20;97.90;;;;;;25592687;23;20017;-59
2023/11/11 18:34:01;;;;;;;0.10;0.00;;;1.20;97.50;;;;;;25594465;23;20016;-50
2023/11/11 18:44:03;;;;;;;1.45;0.22;;;1.00;98.80;;;;;;25598192;23;20083;-59
2023/11/11 18:54:05;;;;;;;0.08;0.00;;;0.70;99.20;;;;;;25598512;23;20056;-59
2023/11/11 19:04:07;;;;;;;0.10;0.00;;;0.80;98.00;;;;;;25598904;23;20001;-59
2023/11/11 19:14:08;;;;;;;0.00;0.00;;;0.70;99.20;;;;;;25598337;23;20075;-59
2023/11/11 19:24:14;;;;;;;0.00;0.00;;;0.70;98.90;;;;;;25598713;23;20005;-51
2023/11/11 19:34:16;;;;;;;0.25;0.10;;;0.60;99.10;;;;;;25596895;23;20332;-59
2023/11/11 19:44:18;;;;;;;0.55;0.00;;;0.80;99.00;;;;;;25596488;23;20017;-59
2023/11/11 19:54:22;;;;;;;0.25;0.00;;;0.80;97.40;;;;;;25596450;23;20008;-59
2023/11/11 20:04:25;;;;;;;0.00;0.00;;;0.90;98.40;;;;;;25594632;23;20015;-49
2023/11/11 20:14:27;;;;;;;2.13;0.00;;;0.90;97.90;;;;;;25595434;23;20027;-50
2023/11/11 20:24:28;;;;;;;0.22;0.10;;;0.90;98.00;;;;;;25595384;23;20009;-59
2023/11/11 20:34:30;;;;;;;0.10;0.00;;;0.80;97.20;;;;;;25594732;23;20009;-59
2023/11/11 20:44:33;;;;;;;0.20;0.00;;;0.80;96.80;;;;;;25594095;23;20512;-59
2023/11/11 20:54:36;;;;;;;0.03;0.00;;;0.80;96.60;;;;;;25593164;23;20013;-59
2023/11/11 21:04:38;;;;;;;0.10;0.00;;;0.60;97.70;;;;;;25593826;23;20519;-59
2023/11/11 21:14:39;;;;;;;0.10;0.00;;;0.60;95.70;;;;;;25593319;23;20005;-59
2023/11/11 21:24:41;;;;;;;0.13;0.08;;;0.70;96.60;;;;;;25593787;23;20016;-59
2023/11/11 21:34:43;;;;;;;0.75;0.08;;;1.00;95.50;;;;;;25592998;23;20005;-59
2023/11/11 21:44:45;;;;;;;0.40;0.10;;;0.70;97.00;;;;;;25592661;23;20515;-48
2023/11/11 21:54:47;;;;;;;0.10;0.00;;;0.60;97.00;;;;;;25593017;23;20005;-59
2023/11/11 22:04:49;;;;;;;0.10;0.00;;;1.10;95.00;;;;;;25592643;23;20005;-59
2023/11/11 22:14:50;;;;;;;0.00;0.00;;;0.90;96.50;;;;;;25599907;23;20432;-59
2023/11/11 22:24:52;;;;;;;0.10;0.00;;;0.80;96.20;;;;;;25599971;23;20001;-59
2023/11/11 22:34:57;;;;;;;0.10;0.00;;;0.70;96.20;;;;;;25599817;23;20013;-59
2023/11/11 22:44:59;;;;;;;0.10;0.00;;;0.50;96.90;;;;;;25599172;23;20080;-59
2023/11/11 22:55:01;;;;;;;0.00;0.00;;;0.50;96.20;;;;;;25599237;23;20005;-59
2023/11/11 23:05:02;;;;;;;0.10;0.00;;;0.50;96.40;;;;;;25598487;23;20058;-59
2023/11/11 23:15:07;;;;;;;0.00;0.00;;;0.60;95.30;;;;;;25598185;23;20380;-59
2023/11/11 23:25:09;;;;;;;0.00;0.00;;;0.70;95.50;;;;;;25597404;23;20449;-59
2023/11/11 23:35:11;;;;;;;0.25;0.00;;;0.60;95.50;;;;;;25597508;23;20499;-59
2023/11/11 23:45:13;;;;;;;0.00;0.00;;;0.30;96.50;;;;;;25597123;23;20079;-59
2023/11/11 23:55:15;;;;;;;0.13;0.00;;;0.10;98.00;;;;;;25596872;23;20012;-48
